createdAt,value
2022-08-02T00:00:43.214Z,1.53
2022-08-02T00:03:11.631Z,1.70
2022-08-02T00:05:40.466Z,1.50
2022-08-02T00:08:08.887Z,1.70
2022-08-02T00:10:37.858Z,1.57
2022-08-02T00:13:06.250Z,1.60
2022-08-02T00:15:35.837Z,1.70
2022-08-02T00:18:04.289Z,1.73
2022-08-02T00:20:32.698Z,1.33
2022-08-02T00:23:01.023Z,1.50
2022-08-02T00:25:29.390Z,1.43
2022-08-02T00:27:58.227Z,1.40
2022-08-02T00:30:26.747Z,1.40
2022-08-02T00:32:56.498Z,1.67
2022-08-02T00:35:24.915Z,1.90
2022-08-02T00:37:53.191Z,1.97
2022-08-02T00:40:23.755Z,1.83
2022-08-02T00:43:04.250Z,2.13
2022-08-02T00:46:02.103Z,2.10
2022-08-02T00:48:22.394Z,1.83
2022-08-02T00:50:50.665Z,1.57
2022-08-02T00:53:19.012Z,1.63
2022-08-02T00:55:47.554Z,1.73
2022-08-02T00:58:17.426Z,1.73
2022-08-02T01:00:45.810Z,1.70
2022-08-02T01:03:14.122Z,1.87
2022-08-02T01:05:55.790Z,1.80
2022-08-02T01:08:33.071Z,2.00
2022-08-02T01:11:01.424Z,2.20
2022-08-02T01:13:30.065Z,2.33
2022-08-02T01:16:05.262Z,2.20
2022-08-02T01:18:39.640Z,2.47
2022-08-02T01:21:23.526Z,2.10
2022-08-02T01:24:36.440Z,2.40
2022-08-02T01:27:20.408Z,2.20
2022-08-02T01:29:57.804Z,2.40
2022-08-02T01:32:30.961Z,2.30
2022-08-02T01:35:04.059Z,1.97
2022-08-02T01:37:41.997Z,2.70
2022-08-02T01:40:13.219Z,2.60
2022-08-02T01:42:44.423Z,2.80
2022-08-02T01:45:16.297Z,2.77
2022-08-02T01:47:46.839Z,2.77
2022-08-02T01:50:19.422Z,3.40
2022-08-02T01:52:53.315Z,3.87
2022-08-02T01:55:33.527Z,3.00
2022-08-02T01:58:18.242Z,4.10
2022-08-02T02:00:49.261Z,4.67
2022-08-02T02:03:21.586Z,4.97
2022-08-02T02:05:51.945Z,4.53
2022-08-02T02:08:27.411Z,5.93
2022-08-02T02:10:57.632Z,6.10
2022-08-02T02:13:46.386Z,5.43
2022-08-02T02:16:17.693Z,5.40
2022-08-02T02:18:48.043Z,5.40
2022-08-02T02:21:17.318Z,5.90
2022-08-02T02:23:45.690Z,6.83
2022-08-02T02:26:17.582Z,5.80
2022-08-02T02:29:01.890Z,6.50
2022-08-02T02:31:34.364Z,6.43
2022-08-02T02:34:05.540Z,7.43
2022-08-02T02:36:35.906Z,7.70
2022-08-02T02:39:11.610Z,7.67
2022-08-02T02:41:43.676Z,7.57
2022-08-02T02:44:15.136Z,7.47
2022-08-02T02:46:46.088Z,8.33
2022-08-02T02:49:16.237Z,7.50
2022-08-02T02:51:46.434Z,7.90
2022-08-02T02:54:33.469Z,8.53
2022-08-02T02:57:05.470Z,7.13
2022-08-02T02:59:35.446Z,8.20
2022-08-02T03:02:07.131Z,7.57
2022-08-02T03:04:57.357Z,8.13
2022-08-02T03:07:24.508Z,8.10
2022-08-02T03:09:54.165Z,9.13
2022-08-02T03:12:30.173Z,8.47
2022-08-02T03:15:00.204Z,9.80
2022-08-02T03:17:40.837Z,10.10
2022-08-02T03:20:12.935Z,10.33
2022-08-02T03:22:41.415Z,10.77
2022-08-02T03:25:10.915Z,8.70
2022-08-02T03:27:39.727Z,8.77
2022-08-02T03:30:10.257Z,10.23
2022-08-02T03:32:41.711Z,9.57
2022-08-02T03:35:12.995Z,11.03
2022-08-02T03:37:42.711Z,11.47
2022-08-02T03:40:13.275Z,14.83
2022-08-02T03:42:42.525Z,13.10
2022-08-02T03:45:13.639Z,14.47
2022-08-02T03:47:44.741Z,16.93
2022-08-02T03:50:14.494Z,17.67
2022-08-02T03:52:43.868Z,17.63
2022-08-02T03:55:13.891Z,18.83
2022-08-02T03:57:43.973Z,19.33
2022-08-02T04:00:18.448Z,18.20
2022-08-02T04:02:48.597Z,18.90
2022-08-02T04:05:17.424Z,19.30
2022-08-02T04:08:34.864Z,20.03
2022-08-02T04:10:54.765Z,21.53
2022-08-02T04:13:27.452Z,21.37
2022-08-02T04:16:02.259Z,25.10
2022-08-02T04:18:40.325Z,26.07
2022-08-02T04:21:13.304Z,23.67
2022-08-02T04:23:44.899Z,27.97
2022-08-02T04:26:13.730Z,25.57
2022-08-02T04:28:44.757Z,25.10
2022-08-02T04:31:13.312Z,27.23
2022-08-02T04:33:43.589Z,25.63
2022-08-02T04:36:14.159Z,27.07
2022-08-02T04:38:42.949Z,25.03
2022-08-02T04:41:11.288Z,24.17
2022-08-02T04:43:39.693Z,23.83
2022-08-02T04:46:08.183Z,26.60
2022-08-02T04:48:36.466Z,24.77
2022-08-02T04:51:06.174Z,23.67
2022-08-02T04:53:34.633Z,23.93
2022-08-02T04:56:02.952Z,22.27
2022-08-02T04:58:40.683Z,24.67
2022-08-02T05:01:09.420Z,27.43
2022-08-02T05:03:37.876Z,27.13
2022-08-02T05:06:19.016Z,26.50
2022-08-02T05:08:52.762Z,23.80
2022-08-02T05:11:22.405Z,24.53
2022-08-02T05:14:03.232Z,23.33
2022-08-02T05:16:32.263Z,21.63
2022-08-02T05:19:01.166Z,20.67
2022-08-02T05:21:32.438Z,20.13
2022-08-02T05:24:00.792Z,21.33
2022-08-02T05:26:29.110Z,20.07
2022-08-02T05:28:57.416Z,18.13
2022-08-02T05:31:25.699Z,19.00
2022-08-02T05:33:53.973Z,21.00
2022-08-02T05:36:22.240Z,24.80
2022-08-02T05:38:52.857Z,23.93
2022-08-02T05:41:28.049Z,23.80
2022-08-02T05:43:56.290Z,24.43
2022-08-02T05:46:24.638Z,24.77
2022-08-02T05:48:52.970Z,24.80
2022-08-02T05:51:24.903Z,22.83
2022-08-02T05:54:03.724Z,24.90
2022-08-02T05:56:36.326Z,23.63
2022-08-02T05:59:06.187Z,22.70
2022-08-02T06:01:37.898Z,21.27
2022-08-02T06:04:08.424Z,19.33
2022-08-02T06:06:37.742Z,22.60
2022-08-02T06:09:11.169Z,19.57
2022-08-02T06:11:42.582Z,19.33
2022-08-02T06:14:32.917Z,17.67
2022-08-02T06:17:04.671Z,20.03
2022-08-02T06:19:48.834Z,21.47
2022-08-02T06:22:32.483Z,17.70
2022-08-02T06:25:48.540Z,18.60
2022-08-02T06:27:56.318Z,19.20
2022-08-02T06:30:24.814Z,18.57
2022-08-02T06:32:53.695Z,16.93
2022-08-02T06:35:22.377Z,16.03
2022-08-02T06:37:58.745Z,13.70
2022-08-02T06:40:34.093Z,11.70
2022-08-02T06:43:12.010Z,9.93
2022-08-02T06:45:42.296Z,10.00
2022-08-02T06:48:11.623Z,9.90
2022-08-02T06:50:41.974Z,9.77
2022-08-02T06:53:11.720Z,9.00
2022-08-02T06:55:43.381Z,7.40
2022-08-02T06:58:12.776Z,8.67
2022-08-02T07:00:41.444Z,8.10
2022-08-02T07:03:09.798Z,7.80
2022-08-02T07:05:38.258Z,7.50
2022-08-02T07:08:06.686Z,7.27
2022-08-02T07:10:35.238Z,7.10
2022-08-02T07:13:04.917Z,5.53
2022-08-02T07:15:33.324Z,5.70
2022-08-02T07:18:01.773Z,4.60
2022-08-02T07:20:30.307Z,5.90
2022-08-02T07:22:58.750Z,7.30
2022-08-02T07:25:27.021Z,4.70
2022-08-02T07:28:24.132Z,4.20
2022-08-02T07:30:53.079Z,3.70
2022-08-02T07:33:38.017Z,3.87
2022-08-02T07:36:09.783Z,3.40
2022-08-02T07:38:45.965Z,2.90
2022-08-02T07:41:15.355Z,2.00
2022-08-02T07:43:45.119Z,2.95
2022-08-02T07:46:13.423Z,2.22
2022-08-02T07:48:41.713Z,2.88
2022-08-02T07:51:12.990Z,2.38
2022-08-02T07:53:51.075Z,2.45
2022-08-02T07:56:30.668Z,2.10
2022-08-02T07:59:00.405Z,2.42
2022-08-02T08:01:28.801Z,2.30
2022-08-02T08:03:57.242Z,2.28
2022-08-02T08:06:28.911Z,2.13
2022-08-02T08:08:57.724Z,2.50
2022-08-02T08:11:26.481Z,1.83
2022-08-02T08:13:54.859Z,1.80
2022-08-02T08:16:26.210Z,2.10
2022-08-02T08:18:54.640Z,2.13
2022-08-02T08:21:23.238Z,1.90
2022-08-02T08:23:51.510Z,1.65
2022-08-02T08:26:19.798Z,1.90
2022-08-02T08:28:48.130Z,1.73
2022-08-02T08:31:16.455Z,1.98
2022-08-02T08:33:46.136Z,1.80
2022-08-02T08:36:16.548Z,1.80
2022-08-02T08:38:44.976Z,1.75
2022-08-02T08:41:13.295Z,2.03
2022-08-02T08:43:41.603Z,1.40
2022-08-02T08:46:12.378Z,1.60
2022-08-02T08:48:44.518Z,1.60
2022-08-02T08:51:19.037Z,1.88
2022-08-02T08:53:50.238Z,2.10
2022-08-02T08:56:19.194Z,2.13
2022-08-02T08:58:48.498Z,1.40
2022-08-02T09:01:17.425Z,2.10
2022-08-02T09:03:46.212Z,2.20
2022-08-02T09:06:15.992Z,1.70
2022-08-02T09:08:44.399Z,1.77
2022-08-02T09:11:17.312Z,1.80
2022-08-02T09:13:54.663Z,1.88
2022-08-02T09:16:31.115Z,1.63
2022-08-02T09:19:00.443Z,1.70
2022-08-02T09:21:38.826Z,2.10
2022-08-02T09:24:18.627Z,2.00
2022-08-02T09:26:48.178Z,1.77
2022-08-02T09:29:17.031Z,2.50
2022-08-02T09:31:49.948Z,2.08
2022-08-02T09:34:20.086Z,1.90
2022-08-02T09:36:54.762Z,1.88
2022-08-02T09:39:26.432Z,2.00
2022-08-02T09:42:08.461Z,2.08
2022-08-02T09:44:37.939Z,1.70
2022-08-02T09:47:16.545Z,1.60
2022-08-02T09:49:52.216Z,1.92
2022-08-02T09:52:43.194Z,2.03
2022-08-02T09:55:13.472Z,1.95
2022-08-02T09:57:41.981Z,1.60
2022-08-02T10:00:14.297Z,2.13
2022-08-02T10:03:08.418Z,1.70
2022-08-02T10:05:55.970Z,2.10
2022-08-02T10:08:34.047Z,2.30
2022-08-02T10:11:03.788Z,1.98
2022-08-02T10:13:34.430Z,1.90
2022-08-02T10:16:03.641Z,2.20
2022-08-02T10:18:41.058Z,2.10
2022-08-02T10:21:15.356Z,3.60
2022-08-02T10:23:47.241Z,2.65
2022-08-02T10:26:18.093Z,1.95
2022-08-02T10:28:49.492Z,1.80
2022-08-02T10:31:25.152Z,2.20
2022-08-02T10:33:55.199Z,2.00
2022-08-02T10:36:27.193Z,2.17
2022-08-02T10:38:59.630Z,2.20
2022-08-02T10:41:46.789Z,2.20
2022-08-02T10:44:27.694Z,2.08
2022-08-02T10:47:20.607Z,1.80
2022-08-02T10:49:53.909Z,1.83
2022-08-02T10:52:23.110Z,1.70
2022-08-02T10:54:57.242Z,1.85
2022-08-02T10:57:27.334Z,2.10
2022-08-02T10:59:58.301Z,2.17
2022-08-02T11:02:38.370Z,2.28
2022-08-02T11:05:12.485Z,2.00
2022-08-02T11:07:42.398Z,1.80
2022-08-02T11:10:39.730Z,1.90
2022-08-02T11:13:11.548Z,2.20
2022-08-02T11:16:10.691Z,1.70
2022-08-02T11:19:07.291Z,2.00
2022-08-02T11:21:36.832Z,2.67
2022-08-02T11:24:28.720Z,2.33
2022-08-02T11:26:59.709Z,3.63
2022-08-02T11:29:38.261Z,2.20
2022-08-02T11:32:08.959Z,2.17
2022-08-02T11:34:38.456Z,2.05
2022-08-02T11:37:07.692Z,1.70
2022-08-02T11:39:36.070Z,1.80
2022-08-02T11:42:06.605Z,1.70
2022-08-02T11:44:42.151Z,1.70
2022-08-02T11:47:10.772Z,1.58
2022-08-02T11:49:39.381Z,1.70
2022-08-02T11:52:11.117Z,1.60
2022-08-02T11:54:41.672Z,1.58
2022-08-02T11:57:21.068Z,1.80
2022-08-02T11:59:52.959Z,1.60
2022-08-02T12:02:23.533Z,1.55
2022-08-02T12:04:58.347Z,1.50
2022-08-02T12:07:31.969Z,1.38
2022-08-02T12:10:05.679Z,1.50
2022-08-02T12:12:47.524Z,1.60
2022-08-02T12:15:31.151Z,1.70
2022-08-02T12:18:17.841Z,1.60
2022-08-02T12:20:46.461Z,1.45
2022-08-02T12:23:15.119Z,1.50
2022-08-02T12:25:43.957Z,1.40
2022-08-02T12:28:19.827Z,1.50
2022-08-02T12:30:55.975Z,1.73
2022-08-02T12:33:25.809Z,1.77
2022-08-02T12:35:54.477Z,1.60
2022-08-02T12:38:23.517Z,1.58
2022-08-02T12:40:52.203Z,1.60
2022-08-02T12:43:23.974Z,1.58
2022-08-02T12:45:54.486Z,1.60
2022-08-02T12:48:39.238Z,1.42
2022-08-02T12:51:20.839Z,1.45
2022-08-02T12:53:58.935Z,1.50
2022-08-02T12:56:29.532Z,1.50
2022-08-02T12:58:59.965Z,1.40
2022-08-02T13:01:29.901Z,1.65
2022-08-02T13:04:11.735Z,1.58
2022-08-02T13:06:44.529Z,1.77
2022-08-02T13:09:15.483Z,1.90
2022-08-02T13:11:44.593Z,1.40
2022-08-02T13:14:15.408Z,2.13
2022-08-02T13:16:46.784Z,2.15
2022-08-02T13:19:16.281Z,2.00
2022-08-02T13:22:01.358Z,1.50
2022-08-02T13:24:37.880Z,1.55
2022-08-02T13:27:08.298Z,1.67
2022-08-02T13:29:38.955Z,2.33
2022-08-02T13:32:07.617Z,1.50
2022-08-02T13:34:36.134Z,1.77
2022-08-02T13:37:05.104Z,1.90
2022-08-02T13:39:33.394Z,1.60
2022-08-02T13:42:01.724Z,1.55
2022-08-02T13:44:30.073Z,1.65
2022-08-02T13:46:59.967Z,1.27
2022-08-02T13:49:51.326Z,1.60
2022-08-02T13:52:17.069Z,1.50
2022-08-02T13:54:45.585Z,1.50
2022-08-02T13:57:13.888Z,1.38
2022-08-02T13:59:57.166Z,1.40
2022-08-02T14:02:29.251Z,1.40
2022-08-02T14:04:58.080Z,1.48
2022-08-02T14:07:26.415Z,1.45
2022-08-02T14:09:54.782Z,1.40
2022-08-02T14:12:23.045Z,1.30
2022-08-02T14:14:53.998Z,1.48
2022-08-02T14:17:22.314Z,1.73
2022-08-02T14:19:55.383Z,1.52
2022-08-02T14:22:23.956Z,1.50
2022-08-02T14:24:54.389Z,1.40
2022-08-02T14:27:23.051Z,1.20
2022-08-02T14:29:51.621Z,1.50
2022-08-02T14:32:19.954Z,1.60
2022-08-02T14:34:57.709Z,1.30
2022-08-02T14:37:26.023Z,1.30
2022-08-02T14:40:00.211Z,1.40
2022-08-02T14:42:29.449Z,1.30
2022-08-02T14:44:57.702Z,1.60
2022-08-02T14:47:26.071Z,1.30
2022-08-02T14:49:54.508Z,1.60
2022-08-02T14:52:24.278Z,1.50
2022-08-02T14:54:52.693Z,1.52
2022-08-02T14:57:21.029Z,1.38
2022-08-02T14:59:50.535Z,1.38
2022-08-02T15:02:20.659Z,1.50
2022-08-02T15:04:48.954Z,1.40
2022-08-02T15:07:17.288Z,1.35
2022-08-02T15:09:47.288Z,1.30
2022-08-02T15:12:15.952Z,1.77
2022-08-02T15:14:44.898Z,1.33
2022-08-02T15:17:13.642Z,1.55
2022-08-02T15:19:56.110Z,1.45
2022-08-02T15:22:27.495Z,1.30
2022-08-02T15:24:58.754Z,1.50
2022-08-02T15:27:27.119Z,1.27
2022-08-02T15:30:00.176Z,1.50
2022-08-02T15:32:29.104Z,1.60
2022-08-02T15:34:57.421Z,1.50
2022-08-02T15:37:26.025Z,1.40
2022-08-02T15:40:01.297Z,1.48
2022-08-02T15:42:30.513Z,1.42
2022-08-02T15:45:00.378Z,1.10
2022-08-02T15:47:28.751Z,1.52
2022-08-02T15:49:58.366Z,1.50
2022-08-02T15:52:27.684Z,1.38
2022-08-02T15:54:56.519Z,1.23
2022-08-02T15:57:37.061Z,1.30
2022-08-02T16:00:17.897Z,1.35
2022-08-02T16:02:48.017Z,1.35
2022-08-02T16:05:17.942Z,1.40
2022-08-02T16:07:47.088Z,1.38
2022-08-02T16:10:16.094Z,1.33
2022-08-02T16:12:45.847Z,1.10
2022-08-02T16:15:14.222Z,1.40
2022-08-02T16:17:49.075Z,1.30
2022-08-02T16:20:23.195Z,1.30
2022-08-02T16:22:51.589Z,1.20
2022-08-02T16:25:20.132Z,1.60
2022-08-02T16:27:59.504Z,1.55
2022-08-02T16:30:35.188Z,1.30
2022-08-02T16:33:03.614Z,2.00
2022-08-02T16:35:31.922Z,1.40
2022-08-02T16:38:00.266Z,1.50
2022-08-02T16:40:28.650Z,1.30
2022-08-02T16:42:58.377Z,1.60
2022-08-02T16:45:28.911Z,1.30
2022-08-02T16:48:05.318Z,1.40
2022-08-02T16:50:34.618Z,1.33
2022-08-02T16:53:07.481Z,1.30
2022-08-02T16:55:36.657Z,1.30
2022-08-02T16:58:09.750Z,2.75
2022-08-02T17:00:38.573Z,1.23
2022-08-02T17:03:14.998Z,1.63
2022-08-02T17:08:32.492Z,1.30
2022-08-02T17:11:03.227Z,1.30
2022-08-02T17:13:34.431Z,2.95
2022-08-02T17:16:20.322Z,1.52
2022-08-02T17:18:54.352Z,1.30
2022-08-02T17:21:22.899Z,1.30
2022-08-02T17:24:05.358Z,1.17
2022-08-02T17:26:38.561Z,1.88
2022-08-02T17:29:15.073Z,3.55
2022-08-02T17:32:05.376Z,2.63
2022-08-02T17:34:36.193Z,1.98
2022-08-02T17:37:06.112Z,1.65
2022-08-02T17:39:44.279Z,1.35
2022-08-02T17:42:23.013Z,1.30
2022-08-02T17:44:54.767Z,1.60
2022-08-02T17:47:31.042Z,1.73
2022-08-02T17:49:59.785Z,1.50
2022-08-02T17:52:51.145Z,1.40
2022-08-02T17:55:17.257Z,1.40
2022-08-02T17:57:57.260Z,1.52
2022-08-02T18:00:33.895Z,1.20
2022-08-02T18:03:05.962Z,1.20
2022-08-02T18:05:39.635Z,1.60
2022-08-02T18:08:10.465Z,1.70
2022-08-02T18:10:42.549Z,1.40
2022-08-02T18:13:12.530Z,1.65
2022-08-02T18:15:45.716Z,1.60
2022-08-02T18:18:14.847Z,1.60
2022-08-02T18:20:43.295Z,1.52
2022-08-02T18:23:13.568Z,2.00
2022-08-02T18:25:45.912Z,2.58
2022-08-02T18:28:15.767Z,3.08
2022-08-02T18:30:45.443Z,3.25
2022-08-02T18:33:59.366Z,2.80
2022-08-02T18:36:02.077Z,3.10
2022-08-02T18:38:31.397Z,2.70
2022-08-02T18:41:02.836Z,2.03
2022-08-02T18:43:32.297Z,1.60
2022-08-02T18:46:15.921Z,1.60
2022-08-02T18:48:47.903Z,1.73
2022-08-02T18:51:18.998Z,1.60
2022-08-02T18:53:51.208Z,1.60
2022-08-02T18:56:24.499Z,1.33
2022-08-02T18:58:54.709Z,1.88
2022-08-02T19:01:33.838Z,1.40
2022-08-02T19:04:04.139Z,1.75
2022-08-02T19:06:34.018Z,1.40
2022-08-02T19:09:05.944Z,1.52
2022-08-02T19:11:47.096Z,1.50
2022-08-02T19:14:29.963Z,1.73
2022-08-02T19:17:15.933Z,1.40
2022-08-02T19:19:51.290Z,1.40
2022-08-02T19:22:20.461Z,1.40
2022-08-02T19:24:51.751Z,1.50
2022-08-02T19:27:26.210Z,1.40
2022-08-02T19:30:03.091Z,1.60
2022-08-02T19:32:41.922Z,1.50
2022-08-02T19:35:30.495Z,1.60
2022-08-02T19:38:09.234Z,1.60
2022-08-02T19:40:38.993Z,1.70
2022-08-02T19:44:26.002Z,1.40
2022-08-02T19:45:57.544Z,1.80
2022-08-02T19:48:28.041Z,1.93
2022-08-02T19:50:59.504Z,1.33
2022-08-02T19:53:47.799Z,1.57
2022-08-02T19:56:24.804Z,1.37
2022-08-02T19:58:54.877Z,1.17
2022-08-02T20:01:36.977Z,1.43
2022-08-02T20:04:13.212Z,1.30
2022-08-02T20:06:45.600Z,1.60
2022-08-02T20:09:16.319Z,1.13
2022-08-02T20:11:45.807Z,1.80
2022-08-02T20:14:14.307Z,1.47
2022-08-02T20:16:42.762Z,1.40
2022-08-02T20:19:15.805Z,1.60
2022-08-02T20:21:50.506Z,1.50
2022-08-02T20:24:22.672Z,1.40
2022-08-02T20:26:55.216Z,1.50
2022-08-02T20:29:42.853Z,1.60
2022-08-02T20:32:22.550Z,2.57
2022-08-02T20:34:53.312Z,1.83
2022-08-02T20:37:59.454Z,1.40
2022-08-02T20:40:16.815Z,1.40
2022-08-02T20:42:47.527Z,1.63
2022-08-02T20:45:16.415Z,1.77
2022-08-02T20:47:45.852Z,3.47
2022-08-02T20:50:38.418Z,1.60
2022-08-02T20:53:08.113Z,1.63
2022-08-02T20:55:53.813Z,2.53
2022-08-02T20:58:26.556Z,1.43
2022-08-02T21:00:59.171Z,2.03
2022-08-02T21:03:39.531Z,1.80
2022-08-02T21:06:11.377Z,1.80
2022-08-02T21:08:45.997Z,1.73
2022-08-02T21:11:16.510Z,1.90
2022-08-02T21:13:46.690Z,2.00
2022-08-02T21:16:32.084Z,1.90
2022-08-02T21:19:02.262Z,1.97
2022-08-02T21:21:32.103Z,2.57
2022-08-02T21:24:01.609Z,2.43
2022-08-02T21:26:32.215Z,2.37
2022-08-02T21:29:03.989Z,2.67
2022-08-02T21:31:35.596Z,2.20
2022-08-02T21:34:21.839Z,2.93
2022-08-02T21:36:56.044Z,2.80
2022-08-02T21:39:24.927Z,3.07
2022-08-02T21:41:53.873Z,2.80
2022-08-02T21:44:23.131Z,2.63
2022-08-02T21:46:53.293Z,2.80
2022-08-02T21:49:40.454Z,3.03
2022-08-02T21:52:12.607Z,2.80
2022-08-02T21:54:45.163Z,2.80
2022-08-02T21:57:15.553Z,3.00
2022-08-02T22:02:37.202Z,2.70
2022-08-02T22:05:06.225Z,2.80
2022-08-02T22:10:52.778Z,2.67
2022-08-02T22:13:21.174Z,2.53
2022-08-02T22:15:50.089Z,2.70
2022-08-02T22:21:14.350Z,2.60
2022-08-02T22:23:50.234Z,2.23
2022-08-02T22:26:19.825Z,2.37
2022-08-02T22:28:51.795Z,2.50
2022-08-02T22:31:40.583Z,2.60
2022-08-02T22:34:26.835Z,2.50
2022-08-02T22:36:58.755Z,2.83
2022-08-02T22:39:28.468Z,2.60
2022-08-02T22:42:06.535Z,2.20
2022-08-02T22:44:44.667Z,2.53
2022-08-02T22:47:14.694Z,2.47
2022-08-02T22:49:54.531Z,2.77
2022-08-02T22:52:25.746Z,3.00
2022-08-02T22:54:55.674Z,2.40
2022-08-02T22:57:30.369Z,2.60
2022-08-02T22:58:36.524Z,1.27
2022-08-02T22:59:10.864Z,2.80
2022-08-02T22:59:11.398Z,2.87
2022-08-02T22:59:12.743Z,2.57
2022-08-02T23:00:00.581Z,2.33
2022-08-02T23:02:30.149Z,2.43
2022-08-02T23:04:58.641Z,2.40
2022-08-02T23:07:27.139Z,2.50
2022-08-02T23:09:56.895Z,2.40
2022-08-02T23:12:25.251Z,2.70
2022-08-02T23:14:53.850Z,2.70
2022-08-02T23:17:39.325Z,2.30
2022-08-02T23:20:09.870Z,2.40
2022-08-02T23:22:38.772Z,2.10
2022-08-02T23:25:09.550Z,2.50
2022-08-02T23:27:38.393Z,2.70
2022-08-02T23:30:08.146Z,2.70
2022-08-02T23:32:39.087Z,2.77
2022-08-02T23:35:08.753Z,2.23
2022-08-02T23:37:59.943Z,2.47
2022-08-02T23:40:38.992Z,2.60
2022-08-02T23:43:13.634Z,2.80
2022-08-02T23:45:46.165Z,2.77
2022-08-02T23:48:14.878Z,2.63
2022-08-02T23:50:43.394Z,2.90
2022-08-02T23:53:11.716Z,2.90
2022-08-02T23:55:41.485Z,2.57
2022-08-02T23:58:09.823Z,2.80
